TimeEDT,TemperatureF,Dew PointF,Humidity,Sea Level PressureIn,VisibilityMPH,Wind Direction,Wind SpeedMPH,Gust SpeedMPH,PrecipitationIn,Events,Conditions,WindDirDegrees,DateUTC
12:52 AM,59.0,52.0,78,30.20,10.0,South,3.5,-,N/A,,Clear,190,2013-09-19 04:52:00
1:52 AM,59.0,52.0,78,30.20,10.0,SSW,3.5,-,N/A,,Clear,200,2013-09-19 05:52:00
2:52 AM,53.1,50.0,89,30.19,10.0,SW,3.5,-,N/A,,Clear,220,2013-09-19 06:52:00
3:52 AM,51.1,48.9,92,30.18,10.0,Calm,Calm,-,N/A,,Clear,0,2013-09-19 07:52:00
4:52 AM,50.0,48.0,93,30.19,10.0,SW,4.6,-,N/A,,Clear,230,2013-09-19 08:52:00
5:52 AM,48.9,46.9,93,30.19,10.0,WSW,4.6,-,N/A,,Partly Cloudy,240,2013-09-19 09:52:00
6:52 AM,48.9,46.9,93,30.19,10.0,Calm,Calm,-,N/A,,Scattered Clouds,0,2013-09-19 10:52:00
7:52 AM,55.0,52.0,89,30.20,10.0,Calm,Calm,-,N/A,,Scattered Clouds,0,2013-09-19 11:52:00
8:52 AM,64.0,55.0,73,30.19,10.0,SW,3.5,-,N/A,,Scattered Clouds,220,2013-09-19 12:52:00
9:52 AM,68.0,54.0,61,30.19,10.0,WSW,6.9,-,N/A,,Scattered Clouds,250,2013-09-19 13:52:00
10:52 AM,66.9,51.1,57,30.21,10.0,Calm,Calm,-,N/A,,Scattered Clouds,0,2013-09-19 14:52:00
11:52 AM,71.1,53.1,53,30.19,10.0,SE,4.6,-,N/A,,Partly Cloudy,140,2013-09-19 15:52:00
12:52 PM,72.0,54.0,53,30.18,10.0,SE,6.9,-,N/A,,Partly Cloudy,130,2013-09-19 16:52:00
1:52 PM,72.0,54.0,53,30.16,10.0,SE,9.2,-,N/A,,Partly Cloudy,130,2013-09-19 17:52:00
2:52 PM,73.0,54.0,51,30.14,10.0,ESE,9.2,-,N/A,,Partly Cloudy,120,2013-09-19 18:52:00
3:52 PM,71.1,53.1,53,30.12,10.0,SE,9.2,-,N/A,,Partly Cloudy,130,2013-09-19 19:52:00
4:52 PM,71.1,52.0,51,30.12,10.0,SE,11.5,-,N/A,,Scattered Clouds,140,2013-09-19 20:52:00
5:52 PM,70.0,52.0,53,30.12,10.0,SE,8.1,-,N/A,,Scattered Clouds,140,2013-09-19 21:52:00
6:52 PM,66.9,51.1,57,30.12,10.0,SSE,4.6,-,N/A,,Scattered Clouds,160,2013-09-19 22:52:00
7:52 PM,62.1,52.0,70,30.12,10.0,South,3.5,-,N/A,,Scattered Clouds,180,2013-09-19 23:52:00
8:52 PM,62.1,51.1,67,30.12,10.0,South,4.6,-,N/A,,Clear,180,2013-09-20 00:52:00
9:52 PM,61.0,52.0,72,30.11,10.0,South,5.8,-,N/A,,Clear,180,2013-09-20 01:52:00
10:52 PM,61.0,53.1,75,30.10,10.0,South,4.6,-,N/A,,Clear,190,2013-09-20 02:52:00
11:52 PM,60.1,54.0,80,30.10,10.0,SSW,3.5,-,N/A,,Clear,200,2013-09-20 03:52:00